Time;durP1;ratioP1;P1;durP2;ratioP2;P2;SDS_P1;SDS_P2;PMS_P1;PMS_P2;Temp;Humidity;BMP_temperature;BMP_pressure;BME280_temperature;BME280_humidity;BME280_pressure;Samples;Min_cycle;Max_cycle;Signal;HPM_P1;HPM_P2
2024/01/30 00:00:51;;;;;;;525.30;497.00;;;7.00;99.90;;;;;;4996234;28;20557;-70
2024/01/30 00:03:17;;;;;;;526.00;498.07;;;7.10;99.90;;;;;;4996020;28;20466;-69
2024/01/30 00:05:46;;;;;;;533.30;504.47;;;7.00;99.90;;;;;;4996195;28;20454;-70
2024/01/30 00:08:12;;;;;;;521.60;492.57;;;7.00;99.90;;;;;;4996124;28;20461;-70
2024/01/30 00:10:39;;;;;;;512.90;484.93;;;7.00;99.90;;;;;;4996453;28;20476;-70
2024/01/30 00:13:07;;;;;;;516.17;488.07;;;7.00;99.90;;;;;;4995633;28;20527;-69
2024/01/30 00:15:34;;;;;;;528.07;498.80;;;7.00;99.90;;;;;;4996210;28;20873;-71
2024/01/30 00:18:01;;;;;;;528.93;500.03;;;6.90;99.90;;;;;;4996007;28;20576;-69
2024/01/30 00:20:28;;;;;;;528.83;499.73;;;6.90;99.90;;;;;;4995878;28;20449;-69
2024/01/30 00:22:56;;;;;;;528.30;498.60;;;6.90;99.90;;;;;;4995804;28;20469;-69
2024/01/30 00:25:23;;;;;;;523.73;494.93;;;6.90;99.90;;;;;;4995571;28;20454;-69
2024/01/30 00:27:49;;;;;;;534.93;505.27;;;6.90;99.90;;;;;;4995718;28;20488;-70
2024/01/30 00:30:16;;;;;;;534.73;504.87;;;6.90;99.90;;;;;;4987211;28;20457;-70
2024/01/30 00:32:43;;;;;;;528.93;498.77;;;6.80;99.90;;;;;;4996359;28;20478;-70
2024/01/30 00:35:11;;;;;;;527.63;498.17;;;6.80;99.90;;;;;;4995643;28;20457;-70
2024/01/30 00:37:37;;;;;;;527.53;497.23;;;6.90;99.90;;;;;;4995366;28;20992;-71
2024/01/30 00:40:07;;;;;;;542.17;511.40;;;6.80;99.90;;;;;;4995125;28;20501;-70
2024/01/30 00:42:34;;;;;;;535.83;505.53;;;6.70;99.90;;;;;;4995430;28;20481;-70
2024/01/30 00:45:01;;;;;;;542.47;511.37;;;6.70;99.90;;;;;;4995558;28;20457;-70
2024/01/30 00:47:29;;;;;;;535.17;502.90;;;6.70;99.90;;;;;;4995388;28;20942;-70
2024/01/30 00:49:55;;;;;;;535.67;505.63;;;6.70;99.90;;;;;;4995158;28;20866;-70
2024/01/30 00:52:22;;;;;;;543.63;512.77;;;6.70;99.90;;;;;;4994941;28;21024;-70
2024/01/30 00:54:49;;;;;;;534.13;502.90;;;6.60;99.90;;;;;;4995204;28;20453;-70
2024/01/30 00:57:17;;;;;;;546.00;514.10;;;6.60;99.90;;;;;;4995329;28;20945;-70
2024/01/30 00:59:44;;;;;;;555.50;522.80;;;6.60;99.90;;;;;;4995149;28;20450;-70
2024/01/30 01:02:10;;;;;;;558.50;525.50;;;6.60;99.90;;;;;;4994972;28;20520;-70
2024/01/30 01:04:37;;;;;;;562.87;529.57;;;6.60;99.90;;;;;;4995100;28;20452;-70
2024/01/30 01:07:04;;;;;;;542.87;509.77;;;6.60;99.90;;;;;;4994000;28;20460;-71
2024/01/30 01:09:31;;;;;;;544.87;510.00;;;6.60;99.90;;;;;;4987998;28;20450;-71
2024/01/30 01:11:58;;;;;;;545.57;511.00;;;6.50;99.90;;;;;;4994746;28;21017;-70
2024/01/30 01:14:26;;;;;;;548.83;514.13;;;6.50;99.90;;;;;;4987036;28;20469;-71
2024/01/30 01:16:53;;;;;;;560.03;525.00;;;6.50;99.90;;;;;;4997960;28;20450;-70
2024/01/30 01:19:19;;;;;;;553.97;518.77;;;6.60;99.90;;;;;;4996103;28;20867;-70
2024/01/30 01:21:47;;;;;;;552.90;517.77;;;6.50;99.90;;;;;;4994464;28;20458;-70
2024/01/30 01:24:13;;;;;;;550.57;515.57;;;6.50;99.90;;;;;;4994839;28;20457;-70
2024/01/30 01:26:40;;;;;;;562.63;526.60;;;6.50;99.90;;;;;;4994838;28;20453;-71
2024/01/30 01:29:09;;;;;;;572.43;535.60;;;6.40;99.90;;;;;;4994540;28;20446;-70
2024/01/30 01:31:43;;;;;;;554.80;518.50;;;6.40;99.90;;;;;;4994539;28;20446;-70
2024/01/30 01:34:10;;;;;;;557.53;521.30;;;6.40;99.90;;;;;;4994612;28;20541;-70
2024/01/30 01:36:36;;;;;;;551.37;515.47;;;6.40;99.90;;;;;;4994562;28;20450;-70
2024/01/30 01:39:04;;;;;;;572.90;535.77;;;6.30;99.90;;;;;;4994340;28;20507;-71
2024/01/30 01:41:31;;;;;;;585.07;547.57;;;6.40;99.90;;;;;;4994564;28;20501;-70
2024/01/30 01:43:58;;;;;;;584.40;545.60;;;6.30;99.90;;;;;;4994385;28;20609;-71
2024/01/30 01:46:27;;;;;;;655.20;609.00;;;6.20;99.90;;;;;;4986426;28;20458;-70
2024/01/30 01:48:56;;;;;;;598.77;559.47;;;6.20;99.90;;;;;;4994287;28;20446;-71
2024/01/30 01:51:23;;;;;;;621.60;576.40;;;6.20;99.90;;;;;;4994267;28;20449;-70
2024/01/30 01:53:51;;;;;;;600.77;560.27;;;6.20;99.90;;;;;;4994289;28;20797;-70
2024/01/30 01:56:17;;;;;;;589.17;548.83;;;6.20;99.90;;;;;;4994105;28;20460;-71
2024/01/30 01:58:47;;;;;;;591.67;550.03;;;6.10;99.90;;;;;;4994113;28;20482;-70
2024/01/30 02:01:14;;;;;;;583.97;542.87;;;6.10;99.90;;;;;;4993621;28;20450;-70
2024/01/30 02:03:41;;;;;;;576.50;536.00;;;6.10;99.90;;;;;;4994119;28;20474;-70
2024/01/30 02:06:10;;;;;;;573.63;532.93;;;6.00;99.90;;;;;;4994008;28;20462;-70
2024/01/30 02:08:38;;;;;;;607.53;561.90;;;6.00;99.90;;;;;;4993878;28;20938;-70
2024/01/30 02:11:05;;;;;;;577.27;534.77;;;6.10;99.90;;;;;;4993622;28;20453;-71
2024/01/30 02:13:32;;;;;;;576.10;532.80;;;6.00;99.90;;;;;;4993022;28;20481;-71
2024/01/30 02:15:59;;;;;;;592.70;549.10;;;6.20;99.90;;;;;;4993723;28;20453;-71
2024/01/30 02:18:25;;;;;;;593.70;550.50;;;6.00;99.90;;;;;;4993562;28;20486;-70
2024/01/30 02:20:55;;;;;;;594.10;551.43;;;6.10;99.90;;;;;;4993463;28;20446;-70
2024/01/30 02:23:25;;;;;;;590.07;547.67;;;6.00;99.90;;;;;;4993623;28;20473;-70
2024/01/30 02:25:52;;;;;;;603.10;560.30;;;6.10;99.90;;;;;;4993695;28;20477;-70
2024/01/30 02:28:20;;;;;;;599.50;556.53;;;6.10;99.90;;;;;;4985989;28;20464;-70
2024/01/30 02:30:47;;;;;;;585.53;542.63;;;6.10;99.90;;;;;;4993410;28;20458;-70
2024/01/30 02:33:14;;;;;;;597.67;554.17;;;6.10;99.90;;;;;;4993665;28;20477;-70
2024/01/30 02:35:41;;;;;;;686.77;634.90;;;6.10;99.90;;;;;;4988345;28;20958;-70
2024/01/30 02:38:08;;;;;;;608.43;563.87;;;6.10;99.90;;;;;;4991390;28;20488;-71
2024/01/30 02:40:36;;;;;;;579.57;537.50;;;6.20;99.90;;;;;;4993084;28;20533;-70
2024/01/30 02:43:04;;;;;;;582.30;539.73;;;6.20;99.90;;;;;;4993764;28;20474;-70
2024/01/30 02:45:31;;;;;;;584.13;541.63;;;6.10;99.90;;;;;;4994344;28;20458;-71
2024/01/30 02:47:58;;;;;;;598.83;555.80;;;6.10;99.90;;;;;;4993388;28;20536;-69
2024/01/30 02:50:25;;;;;;;601.40;557.37;;;6.10;99.90;;;;;;4993019;28;20454;-69
2024/01/30 02:52:51;;;;;;;586.60;543.83;;;6.10;99.90;;;;;;4993862;28;20478;-70
2024/01/30 02:55:18;;;;;;;617.47;565.27;;;6.10;99.90;;;;;;4992978;28;20469;-72
2024/01/30 02:57:46;;;;;;;640.17;464.00;;;6.20;99.90;;;;;;4992854;28;20972;-70
2024/01/30 03:00:14;;;;;;;565.80;526.30;;;6.20;99.90;;;;;;4992922;28;20453;-71
2024/01/30 03:02:41;;;;;;;584.27;540.27;;;6.30;99.90;;;;;;4992807;28;21001;-70
2024/01/30 03:05:09;;;;;;;553.80;512.50;;;6.30;99.90;;;;;;4992925;28;20450;-70
2024/01/30 03:07:35;;;;;;;568.53;527.60;;;6.30;99.90;;;;;;4992853;28;20454;-71
2024/01/30 03:10:02;;;;;;;569.20;526.33;;;6.30;99.90;;;;;;4992385;28;20450;-71
2024/01/30 03:12:29;;;;;;;568.17;524.97;;;6.30;99.90;;;;;;4992847;28;20597;-70
2024/01/30 03:14:57;;;;;;;556.27;514.63;;;6.30;99.90;;;;;;4992823;28;20465;-71
2024/01/30 03:17:24;;;;;;;567.73;527.33;;;6.40;99.90;;;;;;4992695;28;20454;-70
2024/01/30 03:19:51;;;;;;;566.60;525.33;;;6.40;99.90;;;;;;4992484;28;20485;-70
2024/01/30 03:22:18;;;;;;;574.40;534.00;;;6.40;99.90;;;;;;4992404;28;20480;-71
2024/01/30 03:24:45;;;;;;;562.47;522.07;;;6.30;99.90;;;;;;4991957;28;20964;-71
2024/01/30 03:27:12;;;;;;;568.27;528.43;;;6.40;99.90;;;;;;4992308;28;20911;-71
2024/01/30 03:29:38;;;;;;;563.63;524.37;;;6.40;99.90;;;;;;4992408;28;20461;-69
2024/01/30 03:32:07;;;;;;;571.60;531.80;;;6.30;99.90;;;;;;4992270;28;20869;-69
2024/01/30 03:34:34;;;;;;;593.37;553.27;;;6.30;99.90;;;;;;4992544;28;20532;-69
2024/01/30 03:37:01;;;;;;;572.53;534.70;;;6.30;99.90;;;;;;4992272;28;20460;-68
2024/01/30 03:39:27;;;;;;;562.07;525.23;;;6.30;99.90;;;;;;4988315;28;20489;-70
2024/01/30 03:41:54;;;;;;;576.60;538.27;;;6.30;99.90;;;;;;4988405;28;20495;-69
2024/01/30 03:44:21;;;;;;;574.17;535.47;;;6.20;99.90;;;;;;4989510;28;20454;-70
2024/01/30 03:46:48;;;;;;;578.80;540.00;;;6.20;99.90;;;;;;4987655;28;20454;-69
2024/01/30 03:49:16;;;;;;;569.17;529.67;;;6.20;99.90;;;;;;4992994;28;20473;-71
2024/01/30 03:51:42;;;;;;;550.93;513.07;;;6.20;99.90;;;;;;4992331;28;20454;-70
2024/01/30 03:54:09;;;;;;;548.13;510.27;;;6.10;99.90;;;;;;4992307;28;20476;-71
2024/01/30 03:56:36;;;;;;;542.93;505.87;;;6.10;99.90;;;;;;4992531;28;20703;-70
2024/01/30 03:59:03;;;;;;;549.10;511.07;;;6.10;99.90;;;;;;4992141;28;20478;-71
2024/01/30 04:01:30;;;;;;;550.60;512.60;;;6.10;99.90;;;;;;4992362;28;20500;-70
2024/01/30 04:03:56;;;;;;;549.43;512.33;;;6.10;99.90;;;;;;4992468;28;20474;-71
2024/01/30 04:06:25;;;;;;;558.17;520.67;;;6.10;99.90;;;;;;4992152;28;20446;-70
2024/01/30 04:08:51;;;;;;;563.27;525.67;;;6.00;99.90;;;;;;4992384;28;20454;-70
2024/01/30 04:11:19;;;;;;;558.30;519.60;;;5.90;99.90;;;;;;4992123;28;20461;-70
2024/01/30 04:13:47;;;;;;;566.10;527.30;;;5.90;99.90;;;;;;4992067;28;20489;-70
2024/01/30 04:16:21;;;;;;;584.30;542.97;;;5.80;99.90;;;;;;4992129;28;20450;-70
2024/01/30 04:18:47;;;;;;;597.07;554.13;;;5.80;99.90;;;;;;4992807;28;20500;-68
2024/01/30 04:21:14;;;;;;;617.77;572.67;;;5.80;99.90;;;;;;4992022;28;20457;-69
2024/01/30 04:23:43;;;;;;;595.73;550.20;;;5.80;99.90;;;;;;4992289;28;20476;-69
2024/01/30 04:26:10;;;;;;;598.27;553.50;;;5.80;99.90;;;;;;4992108;28;20450;-69
2024/01/30 04:28:36;;;;;;;587.83;542.37;;;5.80;99.90;;;;;;4992303;28;20505;-69
2024/01/30 04:31:03;;;;;;;604.60;559.73;;;5.80;99.90;;;;;;4991639;28;20841;-70
2024/01/30 04:33:30;;;;;;;591.83;547.00;;;5.80;99.90;;;;;;4991824;28;20474;-69
2024/01/30 04:35:57;;;;;;;607.37;561.37;;;5.80;99.90;;;;;;4993995;28;20453;-69
2024/01/30 04:38:23;;;;;;;608.20;562.10;;;5.70;99.90;;;;;;4987547;28;20481;-69
2024/01/30 04:40:52;;;;;;;589.33;545.00;;;5.80;99.90;;;;;;4995371;28;20454;-69
2024/01/30 04:43:18;;;;;;;604.60;559.53;;;5.80;99.90;;;;;;4995361;28;20474;-70
2024/01/30 04:45:45;;;;;;;595.93;550.53;;;5.80;99.90;;;;;;4995370;28;20549;-70
2024/01/30 04:48:12;;;;;;;597.67;551.97;;;5.80;99.90;;;;;;4995626;28;20460;-69
2024/01/30 04:50:39;;;;;;;609.30;563.40;;;5.80;99.90;;;;;;4995208;28;20453;-69
2024/01/30 04:53:06;;;;;;;601.77;556.00;;;5.80;99.90;;;;;;4995320;28;20481;-69
2024/01/30 04:55:32;;;;;;;596.50;551.07;;;5.70;99.90;;;;;;4995452;28;20809;-69
2024/01/30 04:58:00;;;;;;;592.83;546.13;;;5.70;99.90;;;;;;4995315;28;20458;-69
2024/01/30 05:00:27;;;;;;;587.43;540.07;;;5.70;99.90;;;;;;4995456;28;20485;-70
2024/01/30 05:02:56;;;;;;;584.70;537.60;;;5.70;99.90;;;;;;4995338;28;20520;-70
2024/01/30 05:05:22;;;;;;;597.37;550.17;;;5.70;99.90;;;;;;4995113;28;20835;-70
2024/01/30 05:07:50;;;;;;;616.83;569.80;;;5.80;99.90;;;;;;4995113;28;20454;-70
2024/01/30 05:10:17;;;;;;;588.60;542.73;;;5.80;99.90;;;;;;4994773;28;20901;-70
2024/01/30 05:12:44;;;;;;;592.53;548.20;;;5.80;99.90;;;;;;4994829;28;20470;-70
2024/01/30 05:15:12;;;;;;;587.57;542.37;;;5.80;99.90;;;;;;4994718;28;20472;-70
2024/01/30 05:17:39;;;;;;;576.60;531.57;;;5.80;99.90;;;;;;4995022;28;20456;-70
2024/01/30 05:20:07;;;;;;;587.90;542.53;;;5.80;99.90;;;;;;4994595;28;20488;-71
2024/01/30 05:22:34;;;;;;;584.87;537.97;;;5.80;99.90;;;;;;4994668;28;20931;-70
2024/01/30 05:25:00;;;;;;;580.30;535.00;;;5.80;99.90;;;;;;4996245;28;20835;-71
2024/01/30 05:27:27;;;;;;;592.43;546.03;;;5.80;99.90;;;;;;4994686;28;20954;-70
2024/01/30 05:29:54;;;;;;;603.30;556.37;;;5.90;99.90;;;;;;4994791;28;20818;-70
2024/01/30 05:32:22;;;;;;;590.70;545.70;;;5.90;99.90;;;;;;4994703;28;20470;-70
2024/01/30 05:34:50;;;;;;;583.27;538.27;;;5.80;99.90;;;;;;4994731;28;20454;-71
2024/01/30 05:37:17;;;;;;;580.33;535.17;;;5.80;99.90;;;;;;4994503;28;20898;-71
2024/01/30 05:39:44;;;;;;;585.23;539.67;;;6.00;99.90;;;;;;4994183;28;20895;-70
2024/01/30 05:42:11;;;;;;;597.37;551.37;;;5.80;99.90;;;;;;4994624;28;20858;-70
2024/01/30 05:44:38;;;;;;;605.17;559.57;;;5.90;99.90;;;;;;4994516;28;20449;-70
2024/01/30 05:47:05;;;;;;;595.03;549.97;;;5.70;99.90;;;;;;4993806;28;20454;-70
2024/01/30 05:49:33;;;;;;;607.33;561.73;;;5.80;99.90;;;;;;4995047;28;20821;-69
2024/01/30 05:52:00;;;;;;;589.90;544.30;;;5.80;99.90;;;;;;4994063;28;20832;-69
2024/01/30 05:54:26;;;;;;;603.50;557.70;;;5.80;99.90;;;;;;4994068;28;20565;-69
2024/01/30 05:56:53;;;;;;;596.33;550.43;;;5.70;99.90;;;;;;4993976;28;20450;-70
2024/01/30 05:59:20;;;;;;;588.83;543.33;;;5.80;99.90;;;;;;4993987;28;20482;-70
2024/01/30 06:01:47;;;;;;;597.80;551.60;;;5.70;99.90;;;;;;4993965;28;20453;-69
2024/01/30 06:04:14;;;;;;;617.17;569.90;;;5.70;99.90;;;;;;4995147;28;20485;-69
2024/01/30 06:06:42;;;;;;;610.10;563.33;;;5.70;99.90;;;;;;4994799;28;20461;-71
2024/01/30 06:09:09;;;;;;;619.73;571.43;;;5.70;99.90;;;;;;4993599;28;20450;-70
2024/01/30 06:11:36;;;;;;;630.20;580.83;;;5.70;99.90;;;;;;4994100;28;20512;-71
2024/01/30 06:14:02;;;;;;;623.47;574.17;;;5.80;99.90;;;;;;4993695;28;20482;-71
2024/01/30 06:16:30;;;;;;;615.03;566.37;;;5.80;99.90;;;;;;4993793;28;20454;-71
2024/01/30 06:18:57;;;;;;;598.33;550.80;;;5.90;99.90;;;;;;4993584;28;20486;-71
2024/01/30 06:21:25;;;;;;;595.40;548.57;;;5.90;99.90;;;;;;4986336;28;20453;-69
2024/01/30 06:23:53;;;;;;;597.20;550.80;;;5.90;99.90;;;;;;4993308;28;20486;-69
2024/01/30 06:26:20;;;;;;;580.70;535.47;;;6.00;99.90;;;;;;4993703;28;20461;-69
2024/01/30 06:28:46;;;;;;;563.70;520.00;;;6.00;99.90;;;;;;4993550;28;20450;-70
2024/01/30 06:31:13;;;;;;;552.33;512.00;;;6.10;99.90;;;;;;4977212;28;20959;-69
2024/01/30 06:33:42;;;;;;;546.67;507.30;;;6.20;99.90;;;;;;4993458;28;20865;-69
2024/01/30 06:36:09;;;;;;;527.50;491.00;;;6.20;99.90;;;;;;4993169;28;20461;-68
2024/01/30 06:38:36;;;;;;;535.57;499.17;;;6.30;99.90;;;;;;4993612;28;20450;-69
2024/01/30 06:41:04;;;;;;;531.73;496.40;;;6.30;99.90;;;;;;4992964;28;20610;-69
2024/01/30 06:43:31;;;;;;;524.03;490.90;;;6.30;99.90;;;;;;4993247;28;20848;-68
2024/01/30 06:45:58;;;;;;;522.77;490.77;;;6.30;99.90;;;;;;4992457;28;20464;-69
2024/01/30 06:48:25;;;;;;;506.63;475.97;;;6.20;99.90;;;;;;4984863;28;20991;-69
2024/01/30 06:50:53;;;;;;;514.07;482.80;;;6.20;99.90;;;;;;4995309;28;20446;-68
2024/01/30 06:53:20;;;;;;;522.63;489.97;;;6.20;99.90;;;;;;4993224;28;20477;-69
2024/01/30 06:55:47;;;;;;;534.07;500.73;;;6.20;99.90;;;;;;4994143;28;20450;-68
2024/01/30 06:58:15;;;;;;;528.90;494.07;;;6.10;99.90;;;;;;4993188;28;20449;-69
2024/01/30 07:00:42;;;;;;;538.13;502.33;;;6.10;99.90;;;;;;4993700;28;20536;-69
2024/01/30 07:03:10;;;;;;;510.87;475.27;;;6.20;99.90;;;;;;4994591;28;20874;-70
2024/01/30 07:05:37;;;;;;;510.03;475.30;;;6.20;99.90;;;;;;4994577;28;20457;-69
2024/01/30 07:08:05;;;;;;;506.37;471.77;;;6.30;99.90;;;;;;4993848;28;20453;-68
2024/01/30 07:10:32;;;;;;;499.13;465.73;;;6.30;99.90;;;;;;4993379;28;20450;-69
2024/01/30 07:12:59;;;;;;;497.23;464.07;;;6.30;99.90;;;;;;4986563;28;20482;-70
2024/01/30 07:15:28;;;;;;;505.97;473.17;;;6.30;99.90;;;;;;4994249;28;20457;-70
2024/01/30 07:17:55;;;;;;;515.90;481.47;;;6.30;99.90;;;;;;4993398;28;20816;-70
2024/01/30 07:20:22;;;;;;;515.07;481.47;;;6.30;99.90;;;;;;4985174;28;20577;-69
2024/01/30 07:22:49;;;;;;;507.80;474.93;;;6.30;99.90;;;;;;4993210;28;20473;-69
2024/01/30 07:25:16;;;;;;;523.00;491.10;;;6.30;99.90;;;;;;4993574;28;20481;-70
2024/01/30 07:27:44;;;;;;;520.17;487.47;;;6.30;99.90;;;;;;4993252;28;20467;-70
2024/01/30 07:30:11;;;;;;;515.70;482.63;;;6.30;99.90;;;;;;4992921;28;20489;-70
2024/01/30 07:32:39;;;;;;;513.43;481.10;;;6.30;99.90;;;;;;4993074;28;20561;-69
2024/01/30 07:35:06;;;;;;;533.20;500.03;;;6.30;99.90;;;;;;4993183;28;20465;-70
2024/01/30 07:37:34;;;;;;;526.13;493.23;;;6.30;99.90;;;;;;4993472;28;20549;-69
2024/01/30 07:40:03;;;;;;;515.67;482.67;;;6.40;99.90;;;;;;4985597;28;20505;-70
2024/01/30 07:42:30;;;;;;;521.63;488.07;;;6.40;99.90;;;;;;4993286;28;20532;-70
2024/01/30 07:44:57;;;;;;;517.63;484.30;;;6.40;99.90;;;;;;4993186;28;20548;-69
2024/01/30 07:47:23;;;;;;;530.63;497.00;;;6.50;99.90;;;;;;4992895;28;20532;-70
2024/01/30 07:49:54;;;;;;;541.60;507.70;;;6.50;99.90;;;;;;4986282;28;20963;-70
2024/01/30 07:52:20;;;;;;;528.90;495.70;;;6.60;99.90;;;;;;4993867;28;20532;-70
2024/01/30 07:54:47;;;;;;;525.53;492.60;;;6.60;99.90;;;;;;4993838;28;20456;-69
2024/01/30 07:57:14;;;;;;;519.43;487.50;;;6.60;99.90;;;;;;4992567;28;20827;-69
2024/01/30 07:59:43;;;;;;;521.80;490.10;;;6.70;99.90;;;;;;4992373;28;20492;-70
2024/01/30 08:02:10;;;;;;;525.17;493.77;;;6.70;99.90;;;;;;4992412;28;20549;-69
2024/01/30 08:04:37;;;;;;;518.17;487.60;;;6.80;99.90;;;;;;4992031;28;20454;-69
2024/01/30 08:07:05;;;;;;;508.93;480.63;;;6.90;99.90;;;;;;4992427;28;20454;-70
2024/01/30 08:09:33;;;;;;;502.07;475.43;;;7.00;99.90;;;;;;4991994;28;20489;-69
2024/01/30 08:12:00;;;;;;;480.03;455.13;;;7.10;99.90;;;;;;4993598;28;20453;-70
2024/01/30 08:14:27;;;;;;;464.80;441.10;;;7.20;99.90;;;;;;4987852;28;20458;-70
2024/01/30 08:16:53;;;;;;;448.90;427.20;;;7.20;99.90;;;;;;4996020;28;20456;-70
2024/01/30 08:19:20;;;;;;;429.67;410.07;;;7.30;99.90;;;;;;4994570;28;20458;-69
2024/01/30 08:21:47;;;;;;;421.30;401.63;;;7.30;99.90;;;;;;4995220;28;20454;-69
2024/01/30 08:24:15;;;;;;;408.80;390.60;;;7.40;99.90;;;;;;4995757;28;20461;-69
2024/01/30 08:26:42;;;;;;;407.07;389.27;;;7.40;99.90;;;;;;4995413;28;20967;-69
2024/01/30 08:29:09;;;;;;;394.13;376.63;;;7.50;99.90;;;;;;4995541;28;20457;-70
2024/01/30 08:31:35;;;;;;;386.80;370.10;;;7.40;99.90;;;;;;4995927;28;20446;-70
2024/01/30 08:34:02;;;;;;;395.87;378.67;;;7.50;99.90;;;;;;4996671;28;20981;-69
2024/01/30 08:36:29;;;;;;;388.73;372.30;;;7.50;99.90;;;;;;4996378;28;20457;-69
2024/01/30 08:38:57;;;;;;;382.23;366.07;;;7.50;99.90;;;;;;4996361;28;20502;-70
2024/01/30 08:41:25;;;;;;;378.57;362.77;;;7.60;99.90;;;;;;4995222;28;20867;-69
2024/01/30 08:43:52;;;;;;;382.50;366.70;;;7.60;99.90;;;;;;4987601;28;20855;-70
2024/01/30 08:46:19;;;;;;;371.80;356.20;;;7.70;99.90;;;;;;4994918;28;20466;-70
2024/01/30 08:48:48;;;;;;;380.97;365.07;;;7.70;99.90;;;;;;4997249;28;20453;-69
2024/01/30 08:51:15;;;;;;;369.60;354.23;;;7.80;99.90;;;;;;4995527;28;20450;-69
2024/01/30 08:53:42;;;;;;;348.40;333.63;;;7.90;99.90;;;;;;4994627;28;20477;-69
2024/01/30 08:56:09;;;;;;;330.37;317.03;;;8.00;99.90;;;;;;4995711;28;20450;-69
2024/01/30 08:58:37;;;;;;;319.03;306.43;;;8.00;99.90;;;;;;4994958;28;20536;-68
2024/01/30 09:01:05;;;;;;;290.17;278.40;;;8.10;99.90;;;;;;4994441;28;20482;-69
2024/01/30 09:03:32;;;;;;;269.90;259.50;;;8.20;99.90;;;;;;4994517;28;20981;-69
2024/01/30 09:05:59;;;;;;;261.97;251.97;;;8.20;99.90;;;;;;4994727;28;20450;-69
2024/01/30 09:08:26;;;;;;;239.63;230.13;;;8.30;99.90;;;;;;4986524;28;20458;-68
2024/01/30 09:10:52;;;;;;;218.27;209.97;;;8.40;99.90;;;;;;4994352;28;20454;-69
2024/01/30 09:13:19;;;;;;;214.73;206.20;;;8.40;99.90;;;;;;4994466;28;20497;-69
2024/01/30 09:15:47;;;;;;;208.63;200.17;;;8.50;99.90;;;;;;4994571;28;20464;-66
2024/01/30 09:18:14;;;;;;;214.50;206.07;;;8.60;99.90;;;;;;4984538;28;20455;-67
2024/01/30 09:20:41;;;;;;;215.20;206.33;;;8.60;99.90;;;;;;4988060;28;20491;-66
2024/01/30 09:23:08;;;;;;;193.90;185.30;;;8.70;99.90;;;;;;4989913;28;20476;-67
2024/01/30 09:25:34;;;;;;;174.03;166.87;;;8.70;99.90;;;;;;4988076;28;20464;-67
2024/01/30 09:28:01;;;;;;;185.18;177.85;;;8.80;99.90;;;;;;4994578;28;20481;-66
2024/01/30 09:30:28;;;;;;;140.80;134.93;;;8.90;99.90;;;;;;4994607;28;20554;-67
2024/01/30 09:32:56;;;;;;;128.52;122.47;;;8.90;99.90;;;;;;4986177;28;20454;-66
2024/01/30 09:35:23;;;;;;;93.57;88.87;;;9.00;99.90;;;;;;4974515;28;20294;-66
2024/01/30 09:37:51;;;;;;;97.60;92.90;;;9.10;99.90;;;;;;4974656;28;20470;-67
2024/01/30 09:40:19;;;;;;;98.37;93.60;;;9.10;99.90;;;;;;4974738;28;20482;-67
2024/01/30 09:42:48;;;;;;;101.47;96.43;;;9.10;99.90;;;;;;4974829;28;20478;-68
2024/01/30 09:45:15;;;;;;;98.30;92.80;;;9.10;99.90;;;;;;4985494;28;20450;-69
2024/01/30 09:47:43;;;;;;;95.00;90.63;;;9.20;99.90;;;;;;4980388;28;20458;-69
2024/01/30 09:50:12;;;;;;;104.30;99.60;;;9.30;99.90;;;;;;4974300;28;20458;-69
2024/01/30 09:52:40;;;;;;;107.50;102.40;;;9.30;99.90;;;;;;4974676;28;20475;-69
2024/01/30 09:55:08;;;;;;;112.17;107.27;;;9.30;99.90;;;;;;4991682;28;20961;-69
2024/01/30 09:57:35;;;;;;;101.30;96.00;;;9.30;99.90;;;;;;4989421;28;20461;-69
2024/01/30 10:00:02;;;;;;;90.10;85.70;;;9.40;99.90;;;;;;4990658;28;20453;-68
2024/01/30 10:02:29;;;;;;;86.83;82.60;;;9.40;99.90;;;;;;4993587;28;21032;-69
2024/01/30 10:04:56;;;;;;;86.17;81.73;;;9.50;99.90;;;;;;4993894;28;20965;-69
2024/01/30 10:07:24;;;;;;;78.10;74.07;;;9.50;99.90;;;;;;4974844;28;20568;-68
2024/01/30 10:09:50;;;;;;;85.17;80.70;;;9.60;99.90;;;;;;4974052;28;20461;-69
2024/01/30 10:12:17;;;;;;;74.70;70.60;;;9.60;99.90;;;;;;4992556;28;20482;-68
2024/01/30 10:14:44;;;;;;;66.80;62.90;;;9.70;99.90;;;;;;4985761;28;20674;-69
2024/01/30 10:17:11;;;;;;;75.13;71.13;;;9.80;99.90;;;;;;4993432;28;20454;-69
2024/01/30 10:19:39;;;;;;;74.80;70.70;;;9.80;99.90;;;;;;4993466;28;20479;-69
2024/01/30 10:22:05;;;;;;;72.30;68.17;;;9.80;99.90;;;;;;4977112;28;21029;-69
2024/01/30 10:24:35;;;;;;;63.90;60.40;;;9.90;99.90;;;;;;4993588;28;20458;-69
2024/01/30 10:27:02;;;;;;;74.83;67.57;;;10.00;99.90;;;;;;4993805;28;20457;-69
2024/01/30 10:29:29;;;;;;;38.13;35.33;;;10.10;99.90;;;;;;4993072;28;20840;-69
2024/01/30 10:32:00;;;;;;;37.80;35.00;;;10.10;99.90;;;;;;4993155;28;20545;-69
2024/01/30 10:34:27;;;;;;;39.53;35.30;;;10.30;99.90;;;;;;4985491;28;20871;-69
2024/01/30 10:37:01;;;;;;;33.33;30.70;;;10.40;99.90;;;;;;4985929;28;20482;-69
2024/01/30 10:39:31;;;;;;;28.07;24.27;;;10.60;99.90;;;;;;4977537;28;20484;-69
2024/01/30 10:42:05;;;;;;;23.70;21.33;;;10.60;99.90;;;;;;4992795;28;20536;-68
2024/01/30 10:44:40;;;;;;;24.23;21.37;;;10.70;99.90;;;;;;4993244;28;20964;-69
2024/01/30 10:47:12;;;;;;;312.70;113.53;;;10.90;99.90;;;;;;4993520;28;20453;-69
2024/01/30 10:49:40;;;;;;;22.57;18.70;;;10.90;99.90;;;;;;4993180;28;20462;-69
2024/01/30 10:52:08;;;;;;;21.10;16.90;;;11.00;99.90;;;;;;4992994;28;21036;-69
2024/01/30 10:54:37;;;;;;;22.27;17.00;;;11.10;99.90;;;;;;4993206;28;20449;-69
2024/01/30 10:57:06;;;;;;;18.90;16.87;;;10.90;99.90;;;;;;4994143;28;20454;-69
2024/01/30 10:59:34;;;;;;;20.23;17.90;;;10.90;99.90;;;;;;4988346;28;20478;-69
2024/01/30 11:02:01;;;;;;;21.63;18.27;;;11.00;99.90;;;;;;4974088;28;20488;-68
2024/01/30 11:04:36;;;;;;;21.93;19.60;;;10.90;99.90;;;;;;4993439;28;20465;-68
2024/01/30 11:07:04;;;;;;;26.33;21.50;;;11.10;99.90;;;;;;4992748;28;20457;-69
2024/01/30 11:09:31;;;;;;;22.70;19.80;;;11.20;99.90;;;;;;4984705;28;20454;-69
2024/01/30 11:11:59;;;;;;;24.00;21.47;;;11.20;99.90;;;;;;4993612;28;20505;-69
2024/01/30 11:14:30;;;;;;;23.97;20.20;;;11.30;99.90;;;;;;4994078;28;20464;-69
2024/01/30 11:16:58;;;;;;;20.43;18.40;;;11.60;99.90;;;;;;4999133;28;20492;-69
2024/01/30 11:19:26;;;;;;;22.17;15.57;;;11.60;99.90;;;;;;5002378;28;20964;-69
2024/01/30 11:21:54;;;;;;;23.43;17.67;;;11.60;99.90;;;;;;5002257;28;21067;-69
2024/01/30 11:24:22;;;;;;;25.60;17.10;;;11.70;99.90;;;;;;5000747;28;20462;-69
2024/01/30 11:26:51;;;;;;;19.40;13.77;;;11.80;99.90;;;;;;4994972;28;20489;-69
2024/01/30 11:29:18;;;;;;;23.50;14.73;;;11.80;99.90;;;;;;4982735;28;20474;-69
2024/01/30 11:31:54;;;;;;;19.27;15.73;;;11.90;99.90;;;;;;4973865;28;20454;-68
2024/01/30 11:34:22;;;;;;;19.20;15.00;;;11.90;99.90;;;;;;4984008;28;20457;-69
2024/01/30 11:36:55;;;;;;;23.70;15.57;;;11.90;99.90;;;;;;4992699;28;20891;-69
2024/01/30 11:39:22;;;;;;;19.23;14.87;;;12.10;99.90;;;;;;4992316;28;20458;-69
2024/01/30 11:41:52;;;;;;;23.93;16.30;;;12.10;99.90;;;;;;4977450;28;20533;-69
2024/01/30 11:44:20;;;;;;;17.57;13.43;;;12.20;99.90;;;;;;4976022;28;20458;-69
2024/01/30 11:46:47;;;;;;;17.27;11.70;;;12.20;99.90;;;;;;4988448;28;21036;-69
2024/01/30 11:49:15;;;;;;;15.43;11.73;;;12.30;99.90;;;;;;4978960;28;20834;-69
2024/01/30 11:51:42;;;;;;;15.63;11.57;;;12.30;99.90;;;;;;4996413;28;20548;-69
2024/01/30 11:54:09;;;;;;;17.63;12.03;;;12.40;99.90;;;;;;4994976;28;20474;-70
2024/01/30 11:56:37;;;;;;;16.13;11.00;;;12.50;99.90;;;;;;4989905;28;20450;-69
2024/01/30 11:59:04;;;;;;;17.63;10.80;;;12.60;99.90;;;;;;4986931;28;20465;-69
2024/01/30 12:01:31;;;;;;;15.20;9.60;;;12.70;99.90;;;;;;4976807;28;20491;-69
2024/01/30 12:03:59;;;;;;;11.97;9.50;;;12.70;99.90;;;;;;4976921;28;20489;-69
2024/01/30 12:06:28;;;;;;;12.53;9.10;;;12.70;99.90;;;;;;4988377;28;20841;-69
2024/01/30 12:09:04;;;;;;;14.03;12.63;;;12.90;99.90;;;;;;4980570;28;20465;-70
2024/01/30 12:11:31;;;;;;;17.43;12.80;;;12.70;99.90;;;;;;4984299;28;20942;-69
2024/01/30 12:13:58;;;;;;;15.70;11.70;;;12.90;99.90;;;;;;4976464;28;20597;-69
2024/01/30 12:16:25;;;;;;;14.07;10.97;;;12.70;99.90;;;;;;4988035;28;20453;-69
2024/01/30 12:19:01;;;;;;;15.30;10.07;;;12.70;99.90;;;;;;4988997;28;20455;-69
2024/01/30 12:21:30;;;;;;;20.10;10.80;;;12.70;99.90;;;;;;4980059;28;21004;-69